Airfield :
LOGIN :

Register | Disclaimer

   EN    FR    IT 

 










Legend :    VFR   Marginal VFR   IFR   Intensive IFR   Very Intensive IFR
Visi :
Ceiling :
>= 8 km
>= 3000ft
5 to 8 km
1000 to 3000 ft
1500m to 5 km
500 to 1000 ft
800 to 1500m
200 to 500 ft
< 800m
< 200 ft
Symbols :   Thunderstorms  Fog  Heavy snow  Heavy precipitations  Wind > 20 kt
SIGMETs :     Misc.  Thunderstorms  Icing  Turbulence  Mountain Waves  Volcanic Ashes







- Airport Elevation : 529 ft
- IATA code : CHR
- Download approach charts


LFLX - Chateauroux

CURRENT METAR :
  • 141430Z AUTO 25017KT 9999 BKN033/// BKN044/// BKN068/// ///TCU 08/06 Q1001 TEMPO 25025G50KT 4000 SHRA BKN030 SCT035CB

EXPIRED METARs :
  • 141400Z AUTO 24018KT 9999 -RA SCT038/// BKN046/// OVC056/// ///TCU 07/06 Q1002 TEMPO 25025G50KT 4000 SHRA BKN030 SCT035CB
  • 141330Z AUTO 25014KT 9999 FEW035/// SCT048/// BKN060/// ///TCU 07/06 Q1003 TEMPO 25025G50KT 4000 SHRA BKN030 SCT035CB
  • 141300Z AUTO 27020KT 230V300 3700 RA BR FEW017/// BKN026/// BKN034/// ///TCU 07/05 Q1003 TEMPO 25015G35KT BKN030 SCT035CB
  • 141230Z AUTO 22016KT 9999 FEW038/// BKN046/// BKN082/// ///TCU 09/07 Q1003 TEMPO 25015G35KT 4000 SHRA BKN030 SCT035CB
  • 141200Z AUTO 23016KT CAVOK 09/07 Q1004 TEMPO 25015G35KT 4000 SHRA BKN030 SCT035CB

TAF TAF LFLX
Valid from the 14 at 12:00 until the 15 at 18:00 UTC


141100Z 1412/1518 25010G20KT 9999 BKN030 BKN070
TEMPO 1412/1424 25015G35KT 4000 SHRA BKN030 SCT035CB
PROB30
TEMPO 1415/1420 25025G50KT
BECMG 1420/1422 CAVOK
BECMG 1507/1509 BKN030
TEMPO 1509/1518 22015G35KT 4000 SHRA BKN012 SCT015CB
No reported NOTAMs for that airfield.
2 SIGMETs reported for the Bordeaux FIR (LFBB) :
 
Severe turbulence
LFBB SIGMET 2 VALID 141430/141830 LFPW
LFBB BORDEAUX FIR/UIR SEV TURB FCST WI N4630 E00300 - N4345 E00245 - N4600 E00130 - N4630 E00300 SFC/FL080 STNR INTSF=
Severe turbulence
LFBB SIGMET 1 VALID 141400/141700 LFPW
LFBB BORDEAUX FIR/UIR SEV TURB FCST WI N4545 W00145 - N4630 W00130 - N4630 W00100 - N4545 W00030 - N4545 W00145 SFC/FL050 MOV S 30KT NC=



MET'MAP, your aeronautical weather chart ! - Copyright ORBIFLY December 2007 - Disclaimer

ORBIFLY MET'MAP TEAM :

Programming & Development : Alexandra Zaïnal
Concept & Development : Baudouin d'Aumeries
Co-Development & Prog : Marc-Olivier Méhu
Technical & hardware support : Manuel Goepfert

Contact : metmap@orbifly.com




SOURCES & CREDITS :

   NOAA